Time;durP1;ratioP1;P1;durP2;ratioP2;P2;SDS_P1;SDS_P2;PMS_P1;PMS_P2;Temp;Humidity;BMP_temperature;BMP_pressure;BME280_temperature;BME280_humidity;BME280_pressure;Samples;Min_cycle;Max_cycle;Signal;HPM_P1;HPM_P2
2022/10/29 00:00:54;;;;;;;29.50;5.78;;;;;;;;;;4949737;28;20055;-77
2022/10/29 00:03:20;;;;;;;33.50;5.88;;;;;;;;;;4947313;28;20067;-77
2022/10/29 00:05:56;;;;;;;20.40;5.90;;;;;;;;;;4949918;28;20153;-76
2022/10/29 00:08:22;;;;;;;22.25;5.47;;;;;;;;;;4951171;28;20054;-76
2022/10/29 00:10:48;;;;;;;17.88;5.38;;;;;;;;;;4952480;28;20053;-77
2022/10/29 00:13:14;;;;;;;22.30;5.45;;;;;;;;;;4956337;28;20047;-76
2022/10/29 00:15:40;;;;;;;21.25;6.07;;;;;;;;;;4947552;28;20051;-77
2022/10/29 00:18:06;;;;;;;24.63;6.10;;;;;;;;;;4952397;28;20050;-77
2022/10/29 00:20:32;;;;;;;21.42;6.07;;;;;;;;;;4953791;28;20047;-76
2022/10/29 00:22:58;;;;;;;22.92;6.20;;;;;;;;;;4964402;28;20054;-76
2022/10/29 00:25:24;;;;;;;21.08;5.53;;;;;;;;;;4953226;28;20040;-77
2022/10/29 00:27:50;;;;;;;27.27;6.78;;;;;;;;;;4951905;28;20149;-77
2022/10/29 00:30:16;;;;;;;20.73;6.32;;;;;;;;;;4948937;28;20055;-76
2022/10/29 00:32:42;;;;;;;31.88;6.28;;;;;;;;;;4955471;28;20042;-77
2022/10/29 00:35:08;;;;;;;21.85;6.30;;;;;;;;;;4950914;28;20058;-76
2022/10/29 00:37:35;;;;;;;27.83;6.10;;;;;;;;;;4955483;28;20054;-76
2022/10/29 00:40:01;;;;;;;22.00;6.55;;;;;;;;;;4957278;28;20106;-76
2022/10/29 00:42:27;;;;;;;28.98;6.60;;;;;;;;;;4985842;28;20050;-76
2022/10/29 00:44:53;;;;;;;24.08;6.38;;;;;;;;;;4953229;28;20051;-76
2022/10/29 00:47:21;;;;;;;27.33;6.93;;;;;;;;;;4951961;28;20730;-76
2022/10/29 00:49:49;;;;;;;22.02;6.63;;;;;;;;;;4955872;28;20563;-77
2022/10/29 00:52:17;;;;;;;28.02;6.45;;;;;;;;;;4945257;28;20388;-76
2022/10/29 00:54:45;;;;;;;26.88;6.95;;;;;;;;;;4950691;28;20117;-76
2022/10/29 00:57:14;;;;;;;28.02;6.63;;;;;;;;;;4953430;28;20039;-76
2022/10/29 00:59:41;;;;;;;26.85;7.25;;;;;;;;;;4953917;28;20047;-76
2022/10/29 01:02:07;;;;;;;30.63;7.28;;;;;;;;;;4950303;28;20135;-77
2022/10/29 01:04:33;;;;;;;23.80;7.90;;;;;;;;;;4953526;28;20255;-76
2022/10/29 01:06:59;;;;;;;29.25;7.57;;;;;;;;;;4953889;28;20050;-76
2022/10/29 01:09:25;;;;;;;24.60;8.00;;;;;;;;;;4949062;28;20055;-77
2022/10/29 01:12:10;;;;;;;22.23;7.10;;;;;;;;;;4950345;28;20040;-76
2022/10/29 01:14:36;;;;;;;25.75;8.50;;;;;;;;;;4954910;28;20132;-76
2022/10/29 01:17:25;;;;;;;23.63;7.55;;;;;;;;;;4954285;28;20050;-76
2022/10/29 01:20:10;;;;;;;21.95;7.30;;;;;;;;;;4957920;28;20530;-76
2022/10/29 01:22:48;;;;;;;31.02;7.72;;;;;;;;;;4945712;28;20051;-76
2022/10/29 01:25:21;;;;;;;21.25;7.35;;;;;;;;;;4977822;28;20059;-76
2022/10/29 01:28:04;;;;;;;18.48;7.20;;;;;;;;;;4975660;28;20123;-76
2022/10/29 01:30:49;;;;;;;22.80;7.05;;;;;;;;;;4961362;28;20498;-76
2022/10/29 01:33:17;;;;;;;18.55;7.03;;;;;;;;;;4954799;28;20130;-77
2022/10/29 01:35:51;;;;;;;19.20;6.63;;;;;;;;;;4941813;28;20131;-76
2022/10/29 01:38:32;;;;;;;17.25;6.20;;;;;;;;;;4943828;28;20558;-76
2022/10/29 01:41:21;;;;;;;19.10;7.10;;;;;;;;;;4946029;28;20051;-76
2022/10/29 01:43:51;;;;;;;21.77;6.78;;;;;;;;;;4944664;28;20055;-76
2022/10/29 01:46:18;;;;;;;17.27;6.78;;;;;;;;;;4954766;28;20039;-76
2022/10/29 01:48:47;;;;;;;21.60;7.28;;;;;;;;;;4948625;28;20035;-76
2022/10/29 01:51:18;;;;;;;31.30;8.50;;;;;;;;;;4953332;28;20118;-76
2022/10/29 01:53:44;;;;;;;37.70;8.43;;;;;;;;;;4944519;28;20074;-76
2022/10/29 01:56:10;;;;;;;40.20;8.23;;;;;;;;;;4940644;28;20051;-76
2022/10/29 01:58:37;;;;;;;60.20;8.98;;;;;;;;;;4940014;28;20516;-76
2022/10/29 02:01:12;;;;;;;40.00;7.95;;;;;;;;;;4952862;28;20499;-76
2022/10/29 02:03:53;;;;;;;52.80;8.15;;;;;;;;;;4947634;28;20059;-76
2022/10/29 02:06:38;;;;;;;77.30;8.88;;;;;;;;;;4984686;28;20054;-76
2022/10/29 02:09:04;;;;;;;98.57;9.65;;;;;;;;;;4955348;28;20477;-76
2022/10/29 02:11:30;;;;;;;78.15;9.18;;;;;;;;;;4943385;28;20051;-76
2022/10/29 02:14:02;;;;;;;95.85;8.80;;;;;;;;;;4951836;28;20047;-76
2022/10/29 02:16:29;;;;;;;87.40;8.35;;;;;;;;;;4951830;28;20051;-76
2022/10/29 02:18:56;;;;;;;68.68;8.15;;;;;;;;;;4955204;28;20098;-76
2022/10/29 02:21:23;;;;;;;71.90;7.72;;;;;;;;;;4943147;28;20054;-76
2022/10/29 02:23:49;;;;;;;53.83;7.50;;;;;;;;;;4949331;28;20054;-76
2022/10/29 02:26:15;;;;;;;38.28;6.35;;;;;;;;;;4976177;28;20047;-76
2022/10/29 02:28:41;;;;;;;27.65;6.45;;;;;;;;;;4943926;28;20095;-76
2022/10/29 02:31:08;;;;;;;23.92;6.32;;;;;;;;;;4956244;28;20050;-76
2022/10/29 02:33:34;;;;;;;13.63;5.78;;;;;;;;;;4952434;28;20046;-76
2022/10/29 02:36:00;;;;;;;21.80;5.95;;;;;;;;;;4948327;28;20377;-76
2022/10/29 02:38:26;;;;;;;12.32;5.60;;;;;;;;;;4950721;28;20046;-76
2022/10/29 02:40:52;;;;;;;17.20;6.13;;;;;;;;;;4948388;28;20407;-76
2022/10/29 02:43:18;;;;;;;13.90;6.03;;;;;;;;;;4952927;28;20192;-76
2022/10/29 02:45:44;;;;;;;12.73;6.40;;;;;;;;;;4953498;28;20117;-76
2022/10/29 02:48:10;;;;;;;17.50;6.88;;;;;;;;;;4950615;28;20481;-76
2022/10/29 02:50:36;;;;;;;11.52;6.25;;;;;;;;;;4981442;28;20057;-76
2022/10/29 02:53:02;;;;;;;15.52;6.65;;;;;;;;;;4956610;28;20043;-76
2022/10/29 02:55:28;;;;;;;17.45;6.80;;;;;;;;;;4960917;28;20709;-76
2022/10/29 02:57:54;;;;;;;13.07;6.95;;;;;;;;;;4954975;28;20047;-76
2022/10/29 03:00:20;;;;;;;13.02;6.97;;;;;;;;;;4936040;28;20060;-76
2022/10/29 03:02:46;;;;;;;22.50;7.20;;;;;;;;;;4948983;28;20114;-76
2022/10/29 03:05:12;;;;;;;30.08;7.43;;;;;;;;;;4959969;28;20484;-76
2022/10/29 03:07:38;;;;;;;41.33;8.38;;;;;;;;;;4949512;28;20046;-76
2022/10/29 03:10:05;;;;;;;55.03;8.52;;;;;;;;;;4951923;28;20082;-76
2022/10/29 03:12:31;;;;;;;69.95;8.57;;;;;;;;;;4950421;28;20045;-76
2022/10/29 03:14:57;;;;;;;49.60;7.63;;;;;;;;;;4951142;28;20083;-76
2022/10/29 03:17:23;;;;;;;68.35;7.80;;;;;;;;;;4952388;28;20071;-76
2022/10/29 03:19:49;;;;;;;57.22;7.93;;;;;;;;;;4953921;28;20078;-76
2022/10/29 03:22:15;;;;;;;74.28;8.50;;;;;;;;;;4956627;28;20057;-76
2022/10/29 03:24:41;;;;;;;47.42;7.30;;;;;;;;;;4953116;28;20048;-76
2022/10/29 03:27:07;;;;;;;44.13;7.55;;;;;;;;;;4965240;28;20043;-76
2022/10/29 03:29:33;;;;;;;46.08;7.47;;;;;;;;;;4950742;28;20085;-76
2022/10/29 03:31:59;;;;;;;29.75;6.93;;;;;;;;;;4956194;28;20046;-76
2022/10/29 03:34:28;;;;;;;28.15;6.75;;;;;;;;;;4980154;28;20480;-76
2022/10/29 03:36:54;;;;;;;32.92;7.97;;;;;;;;;;4952493;28;20171;-76
2022/10/29 03:39:20;;;;;;;55.10;9.25;;;;;;;;;;4958642;28;20793;-76
2022/10/29 03:41:46;;;;;;;71.63;9.95;;;;;;;;;;4939905;28;20376;-76
2022/10/29 03:44:12;;;;;;;25.52;8.00;;;;;;;;;;4953687;28;20053;-76
2022/10/29 03:46:38;;;;;;;114.03;10.65;;;;;;;;;;4951303;28;20050;-76
2022/10/29 03:49:04;;;;;;;53.00;7.78;;;;;;;;;;4949032;28;20039;-76
2022/10/29 03:51:30;;;;;;;81.93;9.45;;;;;;;;;;4949596;28;20554;-76
2022/10/29 03:53:56;;;;;;;60.83;8.82;;;;;;;;;;4950005;28;20182;-76
2022/10/29 03:56:22;;;;;;;21.05;7.20;;;;;;;;;;4948251;28;20125;-76
2022/10/29 03:58:48;;;;;;;16.08;7.28;;;;;;;;;;4944581;28;20486;-76
2022/10/29 04:01:14;;;;;;;14.32;6.68;;;;;;;;;;4953451;28;20055;-76
2022/10/29 04:03:41;;;;;;;28.60;7.75;;;;;;;;;;4952255;28;20775;-77
2022/10/29 04:06:14;;;;;;;52.00;8.20;;;;;;;;;;4948622;28;20058;-76
2022/10/29 04:08:40;;;;;;;62.83;9.00;;;;;;;;;;4949124;28;20142;-76
2022/10/29 04:11:06;;;;;;;47.90;8.35;;;;;;;;;;4953800;28;20047;-76
2022/10/29 04:13:34;;;;;;;75.18;9.02;;;;;;;;;;4949288;28;20107;-76
2022/10/29 04:16:00;;;;;;;50.63;7.90;;;;;;;;;;4947991;28;20114;-76
2022/10/29 04:18:26;;;;;;;49.38;8.13;;;;;;;;;;4951620;28;20399;-76
2022/10/29 04:20:52;;;;;;;30.30;7.03;;;;;;;;;;4949768;28;20043;-76
2022/10/29 04:23:19;;;;;;;35.92;7.40;;;;;;;;;;4945815;28;20403;-76
2022/10/29 04:25:54;;;;;;;60.42;8.75;;;;;;;;;;4943992;28;20043;-76
2022/10/29 04:28:20;;;;;;;61.35;8.27;;;;;;;;;;4944564;28;20043;-77
2022/10/29 04:30:46;;;;;;;65.95;9.20;;;;;;;;;;4948023;28;20041;-76
2022/10/29 04:33:12;;;;;;;32.88;7.32;;;;;;;;;;4955985;28;20047;-76
2022/10/29 04:35:38;;;;;;;73.93;8.68;;;;;;;;;;4977632;28;20047;-77
2022/10/29 04:38:08;;;;;;;58.70;8.25;;;;;;;;;;4946542;28;20050;-76
2022/10/29 04:40:34;;;;;;;89.65;9.18;;;;;;;;;;4945987;28;20134;-76
2022/10/29 04:43:00;;;;;;;95.10;10.90;;;;;;;;;;4947857;28;20470;-76
2022/10/29 04:45:26;;;;;;;85.55;9.48;;;;;;;;;;4950794;28;20048;-76
2022/10/29 04:47:59;;;;;;;87.88;10.13;;;;;;;;;;4947808;28;20467;-76
2022/10/29 04:50:25;;;;;;;;;;;;;;;;;;4949935;28;20101;-76
2022/10/29 04:52:51;;;;;;;73.32;9.35;;;;;;;;;;4979501;28;20338;-76
2022/10/29 04:55:17;;;;;;;106.65;11.40;;;;;;;;;;4950202;28;20043;-76
2022/10/29 04:57:48;;;;;;;127.22;11.77;;;;;;;;;;4961579;28;20040;-76
2022/10/29 05:00:14;;;;;;;89.38;10.63;;;;;;;;;;4960949;28;20109;-76
2022/10/29 05:02:40;;;;;;;96.03;12.35;;;;;;;;;;4948185;28;20495;-76
2022/10/29 05:05:06;;;;;;;90.93;11.50;;;;;;;;;;4943874;28;20107;-76
2022/10/29 05:07:32;;;;;;;75.13;10.88;;;;;;;;;;4951020;29;20403;-76
2022/10/29 05:09:58;;;;;;;92.13;11.57;;;;;;;;;;4952557;28;20039;-76
2022/10/29 05:12:24;;;;;;;77.15;11.57;;;;;;;;;;4953282;28;20086;-76
2022/10/29 05:14:50;;;;;;;66.72;11.02;;;;;;;;;;4953814;28;20087;-77
2022/10/29 05:17:16;;;;;;;56.65;11.13;;;;;;;;;;4956093;28;20703;-76
2022/10/29 05:19:42;;;;;;;115.50;12.27;;;;;;;;;;4953147;28;20047;-76
2022/10/29 05:22:08;;;;;;;51.35;10.70;;;;;;;;;;4957246;28;20411;-77
2022/10/29 05:24:34;;;;;;;70.80;11.38;;;;;;;;;;4947909;28;20050;-76
2022/10/29 05:27:01;;;;;;;68.50;10.95;;;;;;;;;;4953777;28;20051;-76
2022/10/29 05:29:27;;;;;;;69.05;11.55;;;;;;;;;;4959400;28;20054;-76
2022/10/29 05:31:53;;;;;;;78.88;11.38;;;;;;;;;;4967282;28;20054;-76
2022/10/29 05:34:20;;;;;;;83.18;9.65;;;;;;;;;;4947887;28;20089;-76
2022/10/29 05:36:46;;;;;;;61.22;8.65;;;;;;;;;;4957774;28;20106;-76
2022/10/29 05:39:12;;;;;;;63.15;8.93;;;;;;;;;;4951883;28;20048;-76
2022/10/29 05:41:38;;;;;;;98.72;10.63;;;;;;;;;;4940474;28;20491;-76
2022/10/29 05:44:04;;;;;;;43.83;8.07;;;;;;;;;;4948499;28;20054;-76
2022/10/29 05:46:30;;;;;;;71.55;9.43;;;;;;;;;;4981689;28;20066;-76
2022/10/29 05:48:56;;;;;;;66.13;9.45;;;;;;;;;;4947878;28;20051;-76
2022/10/29 05:51:22;;;;;;;88.10;10.10;;;;;;;;;;4947493;28;20130;-76
2022/10/29 05:53:48;;;;;;;73.93;9.20;;;;;;;;;;4948994;28;20072;-76
2022/10/29 05:56:14;;;;;;;97.55;10.07;;;;;;;;;;4949934;28;20159;-76
2022/10/29 05:58:40;;;;;;;61.97;8.95;;;;;;;;;;4947389;28;20055;-76
2022/10/29 06:01:10;;;;;;;82.10;10.52;;;;;;;;;;4964308;28;20062;-76
2022/10/29 06:03:37;;;;;;;81.30;9.98;;;;;;;;;;4963437;28;20050;-76
2022/10/29 06:06:03;;;;;;;58.83;8.98;;;;;;;;;;4957321;28;20058;-76
2022/10/29 06:08:29;;;;;;;78.45;10.90;;;;;;;;;;4954181;28;20835;-76
2022/10/29 06:10:55;;;;;;;69.60;11.10;;;;;;;;;;4957696;28;20106;-77
2022/10/29 06:13:21;;;;;;;40.63;9.02;;;;;;;;;;4953238;28;20407;-76
2022/10/29 06:15:48;;;;;;;71.85;10.00;;;;;;;;;;4968810;28;20039;-76
2022/10/29 06:18:15;;;;;;;76.90;9.23;;;;;;;;;;4955544;28;20101;-76
2022/10/29 06:20:42;;;;;;;133.48;13.70;;;;;;;;;;4953873;28;20036;-76
2022/10/29 06:23:09;;;;;;;140.68;12.77;;;;;;;;;;4946855;28;20046;-76
2022/10/29 06:25:35;;;;;;;111.97;12.00;;;;;;;;;;4953386;29;20153;-76
2022/10/29 06:28:02;;;;;;;83.00;10.57;;;;;;;;;;4958527;28;20451;-76
2022/10/29 06:30:29;;;;;;;67.68;10.73;;;;;;;;;;4954135;28;20933;-76
2022/10/29 06:32:55;;;;;;;54.78;10.75;;;;;;;;;;4978398;28;20043;-76
2022/10/29 06:35:21;;;;;;;96.18;11.65;;;;;;;;;;4950469;28;20101;-76
2022/10/29 06:37:47;;;;;;;107.00;13.05;;;;;;;;;;4978948;28;20055;-76
2022/10/29 06:40:13;;;;;;;84.20;11.68;;;;;;;;;;4946764;28;20525;-76
2022/10/29 06:42:39;;;;;;;66.00;11.52;;;;;;;;;;4952083;28;20050;-76
2022/10/29 06:45:05;;;;;;;83.90;12.50;;;;;;;;;;4950461;28;20047;-77
2022/10/29 06:47:31;;;;;;;64.03;12.63;;;;;;;;;;4952579;28;20071;-76
2022/10/29 06:50:00;;;;;;;65.57;12.25;;;;;;;;;;4948808;28;20451;-77
2022/10/29 06:52:26;;;;;;;67.90;14.10;;;;;;;;;;4982068;28;20046;-77
2022/10/29 06:54:52;;;;;;;99.63;15.05;;;;;;;;;;4950440;28;20047;-77
2022/10/29 06:57:18;;;;;;;59.95;13.70;;;;;;;;;;4961501;28;20077;-77
2022/10/29 06:59:44;;;;;;;59.42;14.23;;;;;;;;;;4960463;28;20059;-77
2022/10/29 07:02:12;;;;;;;58.35;14.73;;;;;;;;;;4948670;28;20055;-76
2022/10/29 07:04:38;;;;;;;81.85;16.38;;;;;;;;;;4952342;28;20046;-76
2022/10/29 07:07:04;;;;;;;76.35;16.08;;;;;;;;;;4952722;28;20043;-76
2022/10/29 07:09:30;;;;;;;80.45;16.27;;;;;;;;;;4951044;28;20039;-77
2022/10/29 07:11:56;;;;;;;83.47;15.90;;;;;;;;;;4950386;28;20055;-76
2022/10/29 07:14:21;;;;;;;103.32;16.63;;;;;;;;;;4955091;28;20047;-76
2022/10/29 07:16:47;;;;;;;92.18;17.30;;;;;;;;;;4950369;28;20043;-76
2022/10/29 07:19:14;;;;;;;87.75;17.17;;;;;;;;;;4954360;28;20050;-76
2022/10/29 07:21:40;;;;;;;79.30;18.17;;;;;;;;;;4948049;28;20046;-76
2022/10/29 07:24:06;;;;;;;75.82;17.95;;;;;;;;;;4944616;28;20055;-76
2022/10/29 07:26:32;;;;;;;49.47;17.70;;;;;;;;;;4942886;28;20373;-76
2022/10/29 07:28:58;;;;;;;83.68;19.13;;;;;;;;;;4951535;28;20051;-76
2022/10/29 07:31:24;;;;;;;68.90;18.92;;;;;;;;;;4954892;28;20050;-77
2022/10/29 07:33:50;;;;;;;79.63;20.30;;;;;;;;;;4950587;28;20047;-76
2022/10/29 07:36:16;;;;;;;73.82;20.35;;;;;;;;;;4952317;28;20490;-76
2022/10/29 07:38:42;;;;;;;71.28;20.83;;;;;;;;;;4951516;28;20043;-76
2022/10/29 07:41:08;;;;;;;82.00;23.45;;;;;;;;;;4959009;28;20043;-76
2022/10/29 07:43:34;;;;;;;65.90;22.25;;;;;;;;;;4958532;28;20095;-77
2022/10/29 07:46:00;;;;;;;51.88;21.98;;;;;;;;;;4949997;28;20078;-77
2022/10/29 07:48:26;;;;;;;63.30;22.88;;;;;;;;;;4948591;28;20054;-78
2022/10/29 07:50:52;;;;;;;58.08;22.67;;;;;;;;;;4948650;28;20039;-77
2022/10/29 07:53:18;;;;;;;58.00;23.48;;;;;;;;;;4981140;28;20051;-76
2022/10/29 07:55:44;;;;;;;50.17;22.60;;;;;;;;;;4944666;28;20130;-76
2022/10/29 07:58:11;;;;;;;58.47;24.33;;;;;;;;;;4956003;28;20520;-76
2022/10/29 08:00:38;;;;;;;63.22;23.67;;;;;;;;;;4936779;28;20110;-77
2022/10/29 08:03:04;;;;;;;55.13;23.33;;;;;;;;;;4949528;28;20419;-76
2022/10/29 08:05:33;;;;;;;50.97;22.15;;;;;;;;;;4949375;28;20344;-77
2022/10/29 08:07:59;;;;;;;51.72;22.15;;;;;;;;;;4941841;28;20043;-76
2022/10/29 08:10:26;;;;;;;56.28;22.92;;;;;;;;;;4945987;28;20051;-76
2022/10/29 08:12:52;;;;;;;48.88;21.45;;;;;;;;;;4946361;28;20385;-77
2022/10/29 08:15:19;;;;;;;51.78;21.65;;;;;;;;;;4940316;28;20070;-77
2022/10/29 08:17:45;;;;;;;48.15;21.60;;;;;;;;;;4953141;28;20046;-76
2022/10/29 08:20:12;;;;;;;46.55;22.20;;;;;;;;;;4949552;28;20043;-76
2022/10/29 08:22:38;;;;;;;44.58;20.63;;;;;;;;;;4949069;28;20052;-76
2022/10/29 08:25:04;;;;;;;38.78;19.20;;;;;;;;;;4949767;28;20635;-77
2022/10/29 08:27:30;;;;;;;35.78;19.15;;;;;;;;;;4971723;28;20043;-77
2022/10/29 08:29:56;;;;;;;45.50;20.42;;;;;;;;;;4942107;28;20098;-77
2022/10/29 08:32:22;;;;;;;36.15;19.83;;;;;;;;;;4956280;28;20051;-77
2022/10/29 08:34:48;;;;;;;40.05;19.85;;;;;;;;;;4958834;28;20087;-77
2022/10/29 08:37:14;;;;;;;38.08;21.27;;;;;;;;;;4952023;28;20047;-77
2022/10/29 08:39:40;;;;;;;37.55;21.58;;;;;;;;;;4947818;28;20049;-77
2022/10/29 08:42:06;;;;;;;38.85;22.35;;;;;;;;;;4958618;28;20435;-78
2022/10/29 08:44:38;;;;;;;36.05;22.05;;;;;;;;;;4952465;28;20050;-77
2022/10/29 08:47:10;;;;;;;39.20;21.70;;;;;;;;;;4953415;28;20221;-77
2022/10/29 08:49:45;;;;;;;40.22;22.08;;;;;;;;;;4963059;28;20058;-77
2022/10/29 08:52:19;;;;;;;38.22;22.58;;;;;;;;;;4958680;28;20495;-77
2022/10/29 08:54:49;;;;;;;35.10;22.55;;;;;;;;;;4950059;28;20036;-76
2022/10/29 08:57:17;;;;;;;34.97;21.70;;;;;;;;;;4957727;28;20055;-76
2022/10/29 08:59:48;;;;;;;37.10;21.90;;;;;;;;;;4955425;28;20384;-76
2022/10/29 09:02:16;;;;;;;34.80;21.40;;;;;;;;;;4958487;28;20048;-76
2022/10/29 09:04:42;;;;;;;38.80;22.27;;;;;;;;;;4969078;28;21212;-75
2022/10/29 09:07:11;;;;;;;36.85;22.10;;;;;;;;;;4943201;28;20138;-76
2022/10/29 09:09:36;;;;;;;41.47;22.67;;;;;;;;;;4954535;29;20051;-76
2022/10/29 09:12:19;;;;;;;39.88;22.33;;;;;;;;;;4982290;28;20047;-76
2022/10/29 09:14:45;;;;;;;36.95;22.77;;;;;;;;;;4943561;28;20190;-76
2022/10/29 09:17:24;;;;;;;40.35;23.20;;;;;;;;;;4984822;28;20125;-76
2022/10/29 09:19:53;;;;;;;32.10;21.00;;;;;;;;;;4982182;28;20086;-76
2022/10/29 09:22:38;;;;;;;37.25;22.55;;;;;;;;;;4952534;28;20448;-76
2022/10/29 09:25:11;;;;;;;28.52;19.40;;;;;;;;;;4985206;28;20050;-76
2022/10/29 09:27:57;;;;;;;27.00;19.35;;;;;;;;;;4983833;28;20522;-76
2022/10/29 09:30:23;;;;;;;29.52;20.35;;;;;;;;;;4941250;28;20047;-77
2022/10/29 09:32:49;;;;;;;34.28;19.88;;;;;;;;;;4950718;28;20047;-77
2022/10/29 09:35:17;;;;;;;34.88;20.00;;;;;;;;;;4946294;28;20039;-76
2022/10/29 09:37:43;;;;;;;33.22;21.55;;;;;;;;;;4953236;28;20103;-76
2022/10/29 09:40:17;;;;;;;31.02;20.52;;;;;;;;;;4955559;28;20056;-76
2022/10/29 09:42:45;;;;;;;27.20;19.60;;;;;;;;;;4956953;28;20047;-76
2022/10/29 09:45:15;;;;;;;30.52;19.80;;;;;;;;;;4953871;28;20396;-76
2022/10/29 09:47:41;;;;;;;29.80;19.30;;;;;;;;;;4952185;29;20047;-76
2022/10/29 09:50:10;;;;;;;31.75;21.17;;;;;;;;;;4974909;28;20047;-77
2022/10/29 09:52:39;;;;;;;30.63;20.35;;;;;;;;;;4961666;28;20059;-77
2022/10/29 09:55:07;;;;;;;29.02;19.88;;;;;;;;;;4954024;28;20049;-77
2022/10/29 09:57:34;;;;;;;32.70;19.45;;;;;;;;;;4944965;28;20047;-77
2022/10/29 10:00:01;;;;;;;28.02;19.30;;;;;;;;;;4943749;28;21240;-77
2022/10/29 10:02:37;;;;;;;32.17;18.33;;;;;;;;;;4939419;28;20051;-77
2022/10/29 10:05:07;;;;;;;26.63;18.52;;;;;;;;;;4938923;28;20102;-77
2022/10/29 10:07:33;;;;;;;32.50;18.55;;;;;;;;;;4943705;28;20157;-77
2022/10/29 10:10:00;;;;;;;26.40;17.10;;;;;;;;;;4972565;28;20047;-77
2022/10/29 10:12:43;;;;;;;24.90;17.85;;;;;;;;;;4974757;28;20047;-77
2022/10/29 10:15:15;;;;;;;26.75;18.75;;;;;;;;;;4934816;28;20122;-77
2022/10/29 10:17:53;;;;;;;26.33;19.02;;;;;;;;;;4942189;28;21374;-77
2022/10/29 10:20:26;;;;;;;25.83;18.15;;;;;;;;;;4977189;28;20479;-76
2022/10/29 10:22:52;;;;;;;27.93;19.53;;;;;;;;;;4953968;28;20100;-77
2022/10/29 10:25:31;;;;;;;28.35;18.60;;;;;;;;;;4953685;28;20054;-79
2022/10/29 10:27:57;;;;;;;29.58;18.45;;;;;;;;;;4974972;28;20125;-77
2022/10/29 10:30:24;;;;;;;26.00;19.08;;;;;;;;;;4952982;28;20193;-77
2022/10/29 10:32:50;;;;;;;24.65;17.85;;;;;;;;;;4952829;28;20051;-77
2022/10/29 10:35:24;;;;;;;24.80;18.48;;;;;;;;;;4952452;28;20047;-76
2022/10/29 10:37:50;;;;;;;;;;;;;;;;;;4935570;29;20062;-76
2022/10/29 10:40:20;;;;;;;27.55;17.42;;;;;;;;;;4945155;28;20391;-76
2022/10/29 10:42:47;;;;;;;22.70;16.73;;;;;;;;;;4945760;28;20074;-76
2022/10/29 10:45:17;;;;;;;23.45;15.00;;;;;;;;;;4950862;28;20102;-76
2022/10/29 10:47:56;;;;;;;22.35;14.15;;;;;;;;;;4954423;28;20452;-76
2022/10/29 10:50:28;;;;;;;23.13;14.57;;;;;;;;;;4943149;28;20043;-76
2022/10/29 10:52:55;;;;;;;21.85;14.90;;;;;;;;;;4949571;28;20057;-76
2022/10/29 10:55:24;;;;;;;24.27;13.60;;;;;;;;;;4977059;28;20488;-76
2022/10/29 10:58:10;;;;;;;18.90;13.02;;;;;;;;;;4948780;28;20487;-76
2022/10/29 11:00:44;;;;;;;20.38;12.70;;;;;;;;;;4941217;29;20062;-76
2022/10/29 11:03:15;;;;;;;16.83;12.35;;;;;;;;;;4950696;29;20530;-76
2022/10/29 11:05:44;;;;;;;20.33;13.60;;;;;;;;;;4977702;28;20044;-75
2022/10/29 11:08:13;;;;;;;20.10;12.40;;;;;;;;;;4946963;28;20067;-75
2022/10/29 11:10:51;;;;;;;20.45;13.38;;;;;;;;;;4983543;28;20133;-75
2022/10/29 11:13:22;;;;;;;17.15;12.15;;;;;;;;;;4970381;28;20138;-76
2022/10/29 11:16:06;;;;;;;18.63;12.30;;;;;;;;;;4974345;28;20050;-76
2022/10/29 11:18:38;;;;;;;16.38;11.00;;;;;;;;;;4977521;28;20422;-77
2022/10/29 11:21:22;;;;;;;16.98;10.15;;;;;;;;;;4970194;28;20563;-78
2022/10/29 11:23:59;;;;;;;16.63;10.27;;;;;;;;;;4980111;28;20050;-80
2022/10/29 11:26:31;;;;;;;14.52;9.75;;;;;;;;;;4946013;28;20403;-77
2022/10/29 11:28:57;;;;;;;15.15;10.43;;;;;;;;;;4956102;28;20054;-75
2022/10/29 11:31:31;;;;;;;17.13;9.93;;;;;;;;;;4947735;28;20055;-78
2022/10/29 11:33:57;;;;;;;14.32;10.68;;;;;;;;;;4975237;28;20091;-75
2022/10/29 11:36:25;;;;;;;16.90;10.88;;;;;;;;;;4978998;28;20047;-76
2022/10/29 11:38:56;;;;;;;17.48;11.55;;;;;;;;;;4965657;28;20052;-74
2022/10/29 11:41:22;;;;;;;15.88;12.18;;;;;;;;;;4973978;28;20530;-75
2022/10/29 11:43:48;;;;;;;15.90;11.00;;;;;;;;;;4974893;28;20126;-74
2022/10/29 11:46:26;;;;;;;16.42;11.32;;;;;;;;;;4983786;28;20043;-78
2022/10/29 11:49:05;;;;;;;20.48;11.05;;;;;;;;;;4952586;29;20043;-76
2022/10/29 11:51:32;;;;;;;17.35;11.93;;;;;;;;;;4944810;28;20058;-78
2022/10/29 11:54:00;;;;;;;19.92;11.68;;;;;;;;;;4954899;28;20051;-78
2022/10/29 11:56:35;;;;;;;20.52;12.18;;;;;;;;;;4972831;28;20106;-77
2022/10/29 11:59:04;;;;;;;20.15;12.38;;;;;;;;;;4959026;28;20057;-76
2022/10/29 12:01:37;;;;;;;20.48;12.95;;;;;;;;;;4975080;28;20051;-76
2022/10/29 12:04:22;;;;;;;22.42;13.48;;;;;;;;;;4979061;28;20102;-76
2022/10/29 12:06:53;;;;;;;21.05;13.10;;;;;;;;;;4955397;28;20070;-76
2022/10/29 12:09:22;;;;;;;18.67;12.80;;;;;;;;;;4950379;28;20049;-75
2022/10/29 12:11:56;;;;;;;21.13;13.10;;;;;;;;;;4971010;28;20427;-75
2022/10/29 12:14:32;;;;;;;16.65;13.00;;;;;;;;;;4945766;28;20487;-78
2022/10/29 12:17:13;;;;;;;22.17;13.02;;;;;;;;;;4945872;28;20459;-76
2022/10/29 12:19:48;;;;;;;19.83;12.52;;;;;;;;;;4937043;29;20048;-76
2022/10/29 12:22:15;;;;;;;20.25;14.48;;;;;;;;;;4938245;28;20039;-76
2022/10/29 12:24:50;;;;;;;20.13;14.23;;;;;;;;;;4980970;28;20494;-76
2022/10/29 12:27:34;;;;;;;25.10;13.95;;;;;;;;;;4950683;28;20582;-76
2022/10/29 12:30:03;;;;;;;19.23;14.82;;;;;;;;;;4933990;29;20127;-76
2022/10/29 12:32:44;;;;;;;22.95;14.80;;;;;;;;;;4941095;28;20051;-76
2022/10/29 12:35:23;;;;;;;21.35;14.65;;;;;;;;;;4948232;29;20050;-76
2022/10/29 12:38:00;;;;;;;19.15;13.93;;;;;;;;;;4977452;28;20060;-76
2022/10/29 12:40:32;;;;;;;20.45;14.52;;;;;;;;;;4934401;28;20044;-76
2022/10/29 12:43:02;;;;;;;19.73;13.98;;;;;;;;;;4948252;28;20048;-76
2022/10/29 12:45:34;;;;;;;23.65;15.00;;;;;;;;;;4939500;28;20051;-76
2022/10/29 12:48:03;;;;;;;21.38;14.88;;;;;;;;;;4948370;29;20133;-76
2022/10/29 12:50:48;;;;;;;22.13;14.90;;;;;;;;;;4952252;28;20039;-76
2022/10/29 12:53:23;;;;;;;20.40;14.40;;;;;;;;;;4983198;28;20142;-76
2022/10/29 12:55:50;;;;;;;23.75;15.20;;;;;;;;;;4949893;28;20416;-76
2022/10/29 12:58:35;;;;;;;21.98;14.95;;;;;;;;;;4942836;28;20570;-76
2022/10/29 13:01:01;;;;;;;23.25;15.20;;;;;;;;;;4947220;28;20115;-76
2022/10/29 13:03:46;;;;;;;21.73;15.25;;;;;;;;;;4949865;28;20384;-76
2022/10/29 13:06:30;;;;;;;20.85;15.23;;;;;;;;;;4951953;29;20136;-76
2022/10/29 13:08:59;;;;;;;18.63;14.40;;;;;;;;;;4940918;29;20056;-75
2022/10/29 13:11:41;;;;;;;19.33;13.63;;;;;;;;;;4931682;29;20042;-76
2022/10/29 13:14:07;;;;;;;16.35;12.68;;;;;;;;;;4950526;28;20054;-76
2022/10/29 13:16:33;;;;;;;20.85;12.52;;;;;;;;;;4944027;28;20073;-76
2022/10/29 13:19:08;;;;;;;19.45;13.52;;;;;;;;;;4981137;28;20080;-76
2022/10/29 13:21:53;;;;;;;18.25;12.93;;;;;;;;;;4941757;28;20506;-76
2022/10/29 13:24:20;;;;;;;18.65;12.85;;;;;;;;;;4984802;28;20054;-76
2022/10/29 13:26:53;;;;;;;19.38;12.45;;;;;;;;;;4980781;28;20050;-76
2022/10/29 13:29:38;;;;;;;16.88;12.10;;;;;;;;;;4951148;28;20082;-76
2022/10/29 13:32:05;;;;;;;18.25;11.77;;;;;;;;;;4955025;28;20069;-76
2022/10/29 13:34:51;;;;;;;16.27;11.55;;;;;;;;;;4953355;29;20182;-76
2022/10/29 13:37:43;;;;;;;16.85;11.20;;;;;;;;;;4979523;28;20090;-76
2022/10/29 13:40:21;;;;;;;17.05;11.48;;;;;;;;;;4966767;28;20067;-76
2022/10/29 13:42:53;;;;;;;18.17;11.70;;;;;;;;;;4937972;28;20159;-76
2022/10/29 13:45:19;;;;;;;20.58;11.90;;;;;;;;;;4950468;29;20095;-75
2022/10/29 13:47:46;;;;;;;17.17;11.68;;;;;;;;;;4942468;28;20047;-76
2022/10/29 13:50:14;;;;;;;17.17;11.88;;;;;;;;;;4948710;28;20044;-75
2022/10/29 13:52:41;;;;;;;14.05;11.35;;;;;;;;;;4945387;28;20110;-76
2022/10/29 13:55:08;;;;;;;18.10;11.63;;;;;;;;;;4949417;28;20047;-79
2022/10/29 13:57:52;;;;;;;16.00;11.02;;;;;;;;;;4939113;28;20054;-76
2022/10/29 14:00:19;;;;;;;14.93;10.98;;;;;;;;;;4944893;28;20114;-76
2022/10/29 14:03:00;;;;;;;14.57;10.60;;;;;;;;;;4951752;28;20051;-75
2022/10/29 14:05:33;;;;;;;17.13;12.02;;;;;;;;;;4938857;29;20094;-75
2022/10/29 14:08:02;;;;;;;15.60;11.20;;;;;;;;;;4952166;28;20407;-74
2022/10/29 14:10:31;;;;;;;13.63;10.88;;;;;;;;;;4981675;28;20470;-74
2022/10/29 14:13:00;;;;;;;15.15;10.95;;;;;;;;;;4946740;28;20118;-73
2022/10/29 14:15:26;;;;;;;15.48;10.90;;;;;;;;;;4943246;28;20048;-73
2022/10/29 14:17:52;;;;;;;18.08;10.63;;;;;;;;;;4957371;28;20110;-74
2022/10/29 14:20:19;;;;;;;15.13;10.52;;;;;;;;;;4953392;28;20047;-76
2022/10/29 14:22:45;;;;;;;16.05;10.60;;;;;;;;;;4974713;28;20495;-75
2022/10/29 14:25:24;;;;;;;14.80;9.95;;;;;;;;;;4982334;28;20054;-75
2022/10/29 14:28:11;;;;;;;13.55;10.05;;;;;;;;;;4949222;28;20051;-77
2022/10/29 14:30:37;;;;;;;14.65;9.75;;;;;;;;;;4944660;28;20182;-80
2022/10/29 14:33:16;;;;;;;14.23;9.77;;;;;;;;;;4963060;28;20460;-78